Time;durP1;ratioP1;P1;durP2;ratioP2;P2;SDS_P1;SDS_P2;PMS_P1;PMS_P2;Temp;Humidity;BMP_temperature;BMP_pressure;BME280_temperature;BME280_humidity;BME280_pressure;Samples;Min_cycle;Max_cycle;Signal;HPM_P1;HPM_P2
2021/04/22 00:01:15;;;;;;;13.00;1.77;;;5.70;61.80;;;;;;5073175;28;20076;-78
2021/04/22 00:03:40;;;;;;;10.13;1.43;;;5.70;61.50;;;;;;5073161;28;20420;-78
2021/04/22 00:06:06;;;;;;;12.10;1.87;;;5.70;61.50;;;;;;5055279;28;20484;-78
2021/04/22 00:08:32;;;;;;;14.77;1.70;;;5.60;61.80;;;;;;5055493;28;20086;-78
2021/04/22 00:10:57;;;;;;;15.40;2.60;;;5.60;61.80;;;;;;5055370;28;20035;-78
2021/04/22 00:13:26;;;;;;;13.47;1.73;;;5.60;62.10;;;;;;5073147;28;20033;-78
2021/04/22 00:15:53;;;;;;;15.47;2.07;;;5.50;62.10;;;;;;5054954;28;20051;-79
2021/04/22 00:18:19;;;;;;;13.07;1.80;;;5.50;62.30;;;;;;5073113;28;20035;-78
2021/04/22 00:20:45;;;;;;;15.23;1.70;;;5.50;62.40;;;;;;5055322;28;20040;-78
2021/04/22 00:23:13;;;;;;;13.27;2.13;;;5.40;62.60;;;;;;5073068;28;20031;-78
2021/04/22 00:25:41;;;;;;;15.03;2.03;;;5.40;63.20;;;;;;5073098;28;20036;-78
2021/04/22 00:28:07;;;;;;;16.67;1.90;;;5.40;63.30;;;;;;5073091;28;20033;-78
2021/04/22 00:30:34;;;;;;;13.87;2.17;;;5.30;63.30;;;;;;5072969;28;20025;-71
2021/04/22 00:33:00;;;;;;;8.00;1.53;;;5.30;63.60;;;;;;5023608;28;20135;-71
2021/04/22 00:35:26;;;;;;;13.67;1.83;;;5.30;63.30;;;;;;5034928;28;20392;-72
2021/04/22 00:37:52;;;;;;;10.30;1.83;;;5.20;63.30;;;;;;5052996;28;20033;-71
2021/04/22 00:40:22;;;;;;;12.13;1.70;;;5.20;63.60;;;;;;5018535;28;20477;-71
2021/04/22 00:42:48;;;;;;;13.17;1.90;;;5.10;63.80;;;;;;5034784;28;20473;-71
2021/04/22 00:45:16;;;;;;;17.90;1.97;;;5.10;63.80;;;;;;5034805;28;20029;-71
2021/04/22 00:47:42;;;;;;;12.20;1.97;;;5.10;64.00;;;;;;5052603;28;20033;-71
2021/04/22 00:50:18;;;;;;;13.60;1.60;;;5.00;64.60;;;;;;5054481;28;20060;-72
2021/04/22 00:52:44;;;;;;;13.67;2.20;;;5.00;64.50;;;;;;5072901;28;20024;-71
2021/04/22 00:55:11;;;;;;;17.20;2.60;;;5.00;64.50;;;;;;5072637;28;20398;-69
2021/04/22 00:57:37;;;;;;;12.13;1.53;;;4.90;64.30;;;;;;5054570;28;20032;-70
2021/04/22 01:00:08;;;;;;;12.40;2.20;;;4.90;64.60;;;;;;5054573;28;20610;-72
2021/04/22 01:02:36;;;;;;;14.77;2.87;;;4.80;64.80;;;;;;5072779;28;20027;-71
2021/04/22 01:05:08;;;;;;;16.00;3.10;;;4.80;65.10;;;;;;5054601;28;20032;-71
2021/04/22 01:07:36;;;;;;;15.40;2.93;;;4.80;65.50;;;;;;5072416;28;20502;-71
2021/04/22 01:10:03;;;;;;;11.47;2.17;;;4.80;65.70;;;;;;5054773;28;20017;-72
2021/04/22 01:12:28;;;;;;;16.90;2.23;;;4.70;65.70;;;;;;5054624;28;20102;-72
2021/04/22 01:14:54;;;;;;;18.47;2.90;;;4.70;65.70;;;;;;5038808;28;20020;-72
2021/04/22 01:17:19;;;;;;;17.50;2.43;;;4.70;65.70;;;;;;5058280;28;20039;-69
2021/04/22 01:19:46;;;;;;;12.83;1.87;;;4.70;65.90;;;;;;5076436;28;20071;-70
2021/04/22 01:22:11;;;;;;;19.10;2.53;;;4.70;66.10;;;;;;5057515;28;20044;-70
2021/04/22 01:24:37;;;;;;;14.97;2.27;;;4.60;66.10;;;;;;5076252;28;20043;-77
2021/04/22 01:27:03;;;;;;;14.07;2.10;;;4.70;66.40;;;;;;5058213;28;20426;-77
2021/04/22 01:29:28;;;;;;;17.10;2.83;;;4.60;66.40;;;;;;5076041;28;20028;-77
2021/04/22 01:31:54;;;;;;;16.20;2.33;;;4.60;66.70;;;;;;5075775;28;20044;-77
2021/04/22 01:34:20;;;;;;;9.77;2.00;;;4.60;66.60;;;;;;5058134;28;20028;-77
2021/04/22 01:36:47;;;;;;;15.53;2.47;;;4.60;66.60;;;;;;5075930;28;20032;-77
2021/04/22 01:39:13;;;;;;;14.03;2.13;;;4.60;66.50;;;;;;5075861;28;20028;-77
2021/04/22 01:41:41;;;;;;;13.80;3.00;;;4.60;66.50;;;;;;5075875;28;20033;-77
2021/04/22 01:44:07;;;;;;;19.43;2.10;;;4.60;66.50;;;;;;5075795;28;20107;-77
2021/04/22 01:46:33;;;;;;;18.10;2.53;;;4.60;66.60;;;;;;5057886;28;20086;-77
2021/04/22 01:48:59;;;;;;;13.70;1.97;;;4.60;66.80;;;;;;5057558;28;20038;-77
2021/04/22 01:51:25;;;;;;;13.27;2.60;;;4.60;66.90;;;;;;5075673;28;20094;-77
2021/04/22 01:53:51;;;;;;;11.07;1.87;;;4.60;66.90;;;;;;5057766;28;20028;-78
2021/04/22 01:56:18;;;;;;;20.67;2.10;;;4.50;67.10;;;;;;5075504;28;20107;-77
2021/04/22 01:58:44;;;;;;;14.27;2.27;;;4.50;67.20;;;;;;5075623;28;20031;-78
2021/04/22 02:01:11;;;;;;;13.80;2.67;;;4.50;67.20;;;;;;5075286;28;20040;-77
2021/04/22 02:03:36;;;;;;;16.17;2.30;;;4.40;67.40;;;;;;5075424;28;20067;-78
2021/04/22 02:06:04;;;;;;;15.27;2.77;;;4.40;67.40;;;;;;5057105;28;20067;-78
2021/04/22 02:08:31;;;;;;;11.20;2.00;;;4.40;67.40;;;;;;5057247;28;20029;-78
2021/04/22 02:10:58;;;;;;;13.20;2.10;;;4.40;67.70;;;;;;5075330;28;20036;-78
2021/04/22 02:13:25;;;;;;;17.37;2.77;;;4.40;67.80;;;;;;5057255;28;20541;-78
2021/04/22 02:15:51;;;;;;;10.97;1.93;;;4.30;67.90;;;;;;5057947;28;20033;-78
2021/04/22 02:18:17;;;;;;;15.97;2.73;;;4.40;68.10;;;;;;5075355;28;20480;-78
2021/04/22 02:20:43;;;;;;;12.67;1.97;;;4.30;68.10;;;;;;5056985;28;20060;-79
2021/04/22 02:23:16;;;;;;;16.53;2.40;;;4.30;68.20;;;;;;5075089;28;20055;-78
2021/04/22 02:25:42;;;;;;;21.30;2.70;;;4.30;68.30;;;;;;5075089;28;20043;-77
2021/04/22 02:28:08;;;;;;;10.33;2.83;;;4.30;68.40;;;;;;5073883;28;20414;-78
2021/04/22 02:30:38;;;;;;;14.23;2.53;;;4.20;68.50;;;;;;5056961;28;20032;-78
2021/04/22 02:33:06;;;;;;;15.47;3.00;;;4.20;68.60;;;;;;5074958;28;20146;-77
2021/04/22 02:35:35;;;;;;;18.83;2.93;;;4.20;68.70;;;;;;5074952;28;20492;-79
2021/04/22 02:38:03;;;;;;;12.23;2.33;;;4.20;68.90;;;;;;5074194;28;20094;-79
2021/04/22 02:40:30;;;;;;;9.00;1.70;;;4.20;69.00;;;;;;5074701;28;20032;-79
2021/04/22 02:42:58;;;;;;;16.10;2.10;;;4.20;69.20;;;;;;5074769;28;20555;-78
2021/04/22 02:45:35;;;;;;;16.13;3.70;;;4.20;69.30;;;;;;5074600;28;20435;-78
2021/04/22 02:48:01;;;;;;;12.73;2.30;;;4.10;69.90;;;;;;5074497;28;20033;-78
2021/04/22 02:50:31;;;;;;;11.57;2.27;;;4.10;69.40;;;;;;5074335;28;20045;-77
2021/04/22 02:52:57;;;;;;;8.13;2.13;;;4.10;69.50;;;;;;5074592;28;20056;-78
2021/04/22 02:55:23;;;;;;;12.10;2.57;;;4.10;69.60;;;;;;5056264;28;20400;-78
2021/04/22 02:57:49;;;;;;;13.00;3.40;;;4.10;69.70;;;;;;5074218;28;20037;-78
2021/04/22 03:00:20;;;;;;;13.10;2.63;;;4.10;69.90;;;;;;5074092;28;20086;-78
2021/04/22 03:02:46;;;;;;;16.10;2.83;;;4.00;70.00;;;;;;5073825;28;20043;-78
2021/04/22 03:05:13;;;;;;;18.17;3.17;;;4.00;70.00;;;;;;5056411;28;20056;-78
2021/04/22 03:07:38;;;;;;;8.67;2.00;;;4.00;70.20;;;;;;5073957;28;20033;-78
2021/04/22 03:10:07;;;;;;;18.67;2.63;;;4.00;70.20;;;;;;5073785;28;20021;-78
2021/04/22 03:12:33;;;;;;;10.73;2.40;;;4.00;70.50;;;;;;5073690;28;20497;-78
2021/04/22 03:14:59;;;;;;;15.73;2.70;;;4.00;70.50;;;;;;5056349;28;20020;-78
2021/04/22 03:17:24;;;;;;;12.93;2.00;;;4.00;70.50;;;;;;5073995;28;20423;-78
2021/04/22 03:19:50;;;;;;;10.83;2.67;;;4.00;70.70;;;;;;5073995;28;20155;-78
2021/04/22 03:22:16;;;;;;;13.30;2.47;;;4.00;70.80;;;;;;5073977;28;20063;-78
2021/04/22 03:24:41;;;;;;;16.50;2.40;;;4.00;70.90;;;;;;5074095;28;20498;-78
2021/04/22 03:27:07;;;;;;;13.33;2.73;;;4.00;71.00;;;;;;5073733;28;20384;-78
2021/04/22 03:29:33;;;;;;;12.90;2.80;;;4.00;71.30;;;;;;5056026;28;20480;-78
2021/04/22 03:31:59;;;;;;;11.67;2.53;;;4.00;71.30;;;;;;5073790;28;20020;-78
2021/04/22 03:34:25;;;;;;;14.60;2.67;;;4.10;71.60;;;;;;5073627;28;20106;-79
2021/04/22 03:36:51;;;;;;;11.47;3.43;;;4.10;71.50;;;;;;5073659;28;20476;-78
2021/04/22 03:39:17;;;;;;;15.50;2.73;;;4.10;71.70;;;;;;5055831;28;20082;-78
2021/04/22 03:41:42;;;;;;;18.07;3.23;;;4.10;71.60;;;;;;5055572;28;20032;-78
2021/04/22 03:44:08;;;;;;;15.03;2.47;;;4.10;71.60;;;;;;5055610;28;20036;-78
2021/04/22 03:46:33;;;;;;;10.63;2.13;;;4.00;71.60;;;;;;5073420;28;20030;-78
2021/04/22 03:48:59;;;;;;;12.93;2.93;;;4.00;71.60;;;;;;5055519;28;20049;-78
2021/04/22 03:51:25;;;;;;;10.50;2.63;;;4.00;72.30;;;;;;5073378;28;20031;-78
2021/04/22 03:53:51;;;;;;;14.33;2.60;;;4.00;72.20;;;;;;5073344;28;20349;-78
2021/04/22 03:56:17;;;;;;;17.03;3.33;;;4.00;72.00;;;;;;5073301;28;20074;-78
2021/04/22 03:58:42;;;;;;;12.70;2.63;;;4.00;72.00;;;;;;5072884;28;20036;-78
2021/04/22 04:01:08;;;;;;;10.83;2.17;;;3.90;72.10;;;;;;5064342;28;20408;-78
2021/04/22 04:03:34;;;;;;;14.77;2.60;;;4.00;72.20;;;;;;5052154;28;20040;-78
2021/04/22 04:05:59;;;;;;;19.23;2.27;;;3.90;72.10;;;;;;5052115;28;20033;-78
2021/04/22 04:08:25;;;;;;;16.90;2.57;;;3.90;72.00;;;;;;5033870;28;20489;-78
2021/04/22 04:10:51;;;;;;;11.90;2.40;;;3.90;72.00;;;;;;5053194;28;20055;-78
2021/04/22 04:13:16;;;;;;;11.23;2.40;;;3.90;72.20;;;;;;5053236;28;20032;-78
2021/04/22 04:15:45;;;;;;;17.23;2.87;;;3.90;72.30;;;;;;5062275;28;20053;-78
2021/04/22 04:18:13;;;;;;;19.47;2.60;;;3.90;72.70;;;;;;5055013;28;20062;-78
2021/04/22 04:20:39;;;;;;;15.57;2.20;;;3.80;72.60;;;;;;5073064;28;20024;-78
2021/04/22 04:23:04;;;;;;;9.03;2.37;;;3.90;72.50;;;;;;5072826;28;20033;-78
2021/04/22 04:25:30;;;;;;;16.03;3.20;;;3.80;72.50;;;;;;5055220;28;20021;-78
2021/04/22 04:27:56;;;;;;;11.70;2.57;;;3.90;72.50;;;;;;5053207;28;20392;-78
2021/04/22 04:30:21;;;;;;;11.10;2.17;;;3.90;72.60;;;;;;5071989;28;20104;-78
2021/04/22 04:32:48;;;;;;;11.80;2.07;;;3.90;72.70;;;;;;5070835;28;20028;-78
2021/04/22 04:35:14;;;;;;;14.83;2.53;;;3.90;72.50;;;;;;5072648;28;20434;-78
2021/04/22 04:37:40;;;;;;;9.73;2.70;;;3.90;72.50;;;;;;5073035;28;20054;-78
2021/04/22 04:40:08;;;;;;;10.43;2.27;;;3.90;72.60;;;;;;5069983;28;20025;-78
2021/04/22 04:42:34;;;;;;;19.00;2.93;;;4.00;72.70;;;;;;5061042;28;20119;-78
2021/04/22 04:45:00;;;;;;;10.43;2.27;;;4.00;73.20;;;;;;5055232;28;20102;-78
2021/04/22 04:47:25;;;;;;;10.50;1.87;;;4.00;73.20;;;;;;5057851;28;21705;-78
2021/04/22 04:49:51;;;;;;;14.03;2.50;;;4.10;72.90;;;;;;5055573;28;20093;-78
2021/04/22 04:52:16;;;;;;;13.73;2.13;;;4.10;72.70;;;;;;5054684;28;20030;-78
2021/04/22 04:54:42;;;;;;;13.77;2.17;;;4.10;72.40;;;;;;5056975;28;20033;-78
2021/04/22 04:57:08;;;;;;;14.90;2.47;;;4.20;72.30;;;;;;5056795;28;20029;-78
2021/04/22 04:59:35;;;;;;;13.97;2.57;;;4.20;72.30;;;;;;5057817;28;20052;-71
2021/04/22 05:02:00;;;;;;;12.27;1.63;;;4.30;72.40;;;;;;5067965;28;20039;-71
2021/04/22 05:04:26;;;;;;;8.13;1.70;;;4.30;72.30;;;;;;5058975;28;20028;-72
2021/04/22 05:06:51;;;;;;;12.67;1.67;;;4.40;72.50;;;;;;5035853;28;20116;-71
2021/04/22 05:09:17;;;;;;;12.23;1.73;;;4.40;72.10;;;;;;5081938;28;20032;-72
2021/04/22 05:11:43;;;;;;;11.53;2.10;;;4.50;72.10;;;;;;5044535;28;20025;-72
2021/04/22 05:14:08;;;;;;;13.30;1.83;;;4.50;71.90;;;;;;5044250;28;20028;-71
2021/04/22 05:16:34;;;;;;;14.27;1.80;;;4.60;71.90;;;;;;5067095;28;20040;-71
2021/04/22 05:18:59;;;;;;;11.87;2.07;;;4.60;71.70;;;;;;5059482;28;20086;-71
2021/04/22 05:21:25;;;;;;;8.13;1.73;;;4.70;71.60;;;;;;5082662;28;20064;-71
2021/04/22 05:23:51;;;;;;;8.60;2.30;;;4.70;71.50;;;;;;5058542;28;20060;-72
2021/04/22 05:26:19;;;;;;;13.67;2.50;;;4.80;71.40;;;;;;5038804;28;20071;-72
2021/04/22 05:28:45;;;;;;;10.77;1.60;;;4.80;71.20;;;;;;5038298;28;20086;-71
2021/04/22 05:31:11;;;;;;;12.50;1.70;;;4.90;71.70;;;;;;5044214;28;20543;-71
2021/04/22 05:33:36;;;;;;;14.80;1.97;;;4.90;71.00;;;;;;5057299;28;20054;-71
2021/04/22 05:36:04;;;;;;;8.20;1.70;;;4.90;70.70;;;;;;5069818;28;20027;-71
2021/04/22 05:38:29;;;;;;;9.67;1.13;;;5.00;70.70;;;;;;5044009;28;20622;-71
2021/04/22 05:40:55;;;;;;;9.00;1.50;;;5.00;70.50;;;;;;5005160;28;20128;-71
2021/04/22 05:43:20;;;;;;;10.50;1.10;;;5.10;70.50;;;;;;5038325;28;20361;-72
2021/04/22 05:45:46;;;;;;;10.03;1.23;;;5.10;70.30;;;;;;5055356;28;20111;-72
2021/04/22 05:48:12;;;;;;;13.67;1.93;;;5.20;70.10;;;;;;5021628;28;20033;-71
2021/04/22 05:50:38;;;;;;;8.93;1.53;;;5.20;70.10;;;;;;5056075;28;20025;-72
2021/04/22 05:53:03;;;;;;;15.10;1.87;;;5.20;69.90;;;;;;5045209;28;20438;-72
2021/04/22 05:55:29;;;;;;;11.17;1.70;;;5.30;69.80;;;;;;5075940;28;20039;-72
2021/04/22 05:57:56;;;;;;;12.90;1.53;;;5.30;69.70;;;;;;5075755;28;20495;-72
2021/04/22 06:00:23;;;;;;;7.67;2.20;;;5.40;69.70;;;;;;5075642;28;20550;-72
2021/04/22 06:02:49;;;;;;;11.90;2.40;;;5.40;69.50;;;;;;5041296;28;20024;-72
2021/04/22 06:05:15;;;;;;;8.73;1.67;;;5.50;69.50;;;;;;5075527;28;20503;-71
2021/04/22 06:07:40;;;;;;;12.03;1.57;;;5.50;69.40;;;;;;5057046;28;20119;-72
2021/04/22 06:10:07;;;;;;;6.20;1.10;;;5.60;69.30;;;;;;5075202;28;20089;-72
2021/04/22 06:12:33;;;;;;;10.00;1.37;;;5.60;69.10;;;;;;5041041;28;20025;-72
2021/04/22 06:14:59;;;;;;;8.77;1.40;;;5.60;69.00;;;;;;5040979;28;20032;-72
2021/04/22 06:17:25;;;;;;;7.93;1.63;;;5.60;68.80;;;;;;5074832;28;20021;-71
2021/04/22 06:19:50;;;;;;;11.80;1.90;;;5.70;69.30;;;;;;5055615;28;20033;-71
2021/04/22 06:22:16;;;;;;;11.17;1.60;;;5.70;68.60;;;;;;5057521;28;20037;-72
2021/04/22 06:24:42;;;;;;;8.27;1.13;;;5.70;68.40;;;;;;5054626;28;20041;-72
2021/04/22 06:27:07;;;;;;;21.43;1.80;;;5.80;68.40;;;;;;5056850;28;20036;-72
2021/04/22 06:29:33;;;;;;;9.33;1.50;;;5.80;68.20;;;;;;5033464;28;20362;-72
2021/04/22 06:31:59;;;;;;;8.53;2.33;;;5.90;68.20;;;;;;5037132;28;20036;-72
2021/04/22 06:34:25;;;;;;;9.37;1.70;;;6.00;68.30;;;;;;5054229;28;20028;-72
2021/04/22 06:36:51;;;;;;;10.00;1.70;;;6.00;68.10;;;;;;5077495;28;20073;-72
2021/04/22 06:39:17;;;;;;;7.10;1.17;;;6.20;68.10;;;;;;5084120;28;20066;-72
2021/04/22 06:41:43;;;;;;;9.37;1.50;;;6.10;68.20;;;;;;5027972;28;20773;-72
2021/04/22 06:44:08;;;;;;;12.87;2.20;;;6.20;68.10;;;;;;5064634;28;20028;-71
2021/04/22 06:46:35;;;;;;;13.90;2.73;;;6.30;67.80;;;;;;5065250;28;20073;-78
2021/04/22 06:49:01;;;;;;;9.70;1.30;;;6.50;67.60;;;;;;5065818;28;20379;-78
2021/04/22 06:51:26;;;;;;;8.47;1.60;;;6.50;67.40;;;;;;5074562;28;20033;-77
2021/04/22 06:53:52;;;;;;;11.40;1.50;;;6.60;67.10;;;;;;5056541;28;20454;-76
2021/04/22 06:56:19;;;;;;;13.63;1.40;;;6.70;67.00;;;;;;5056471;28;20069;-77
2021/04/22 06:58:44;;;;;;;12.40;1.90;;;6.90;66.90;;;;;;5079363;28;20016;-76
2021/04/22 07:01:10;;;;;;;7.10;1.50;;;7.00;66.70;;;;;;5073265;28;20044;-76
2021/04/22 07:03:36;;;;;;;11.40;1.47;;;7.10;66.60;;;;;;5076277;28;20039;-77
2021/04/22 07:06:01;;;;;;;8.00;1.20;;;7.20;66.40;;;;;;5076321;28;20085;-78
2021/04/22 07:08:27;;;;;;;8.47;1.33;;;7.30;66.10;;;;;;5094331;28;20090;-78
2021/04/22 07:10:52;;;;;;;5.07;0.97;;;7.50;65.80;;;;;;5076274;28;20032;-77
2021/04/22 07:13:18;;;;;;;7.90;1.50;;;7.60;65.60;;;;;;5075772;28;20025;-78
2021/04/22 07:15:44;;;;;;;5.87;1.37;;;7.70;65.40;;;;;;5075627;28;20086;-77
2021/04/22 07:18:11;;;;;;;14.53;1.93;;;7.80;65.10;;;;;;5073866;28;20033;-77
2021/04/22 07:20:37;;;;;;;10.87;1.67;;;7.90;64.80;;;;;;5055872;28;20073;-70
2021/04/22 07:23:03;;;;;;;13.53;2.10;;;8.00;64.50;;;;;;5045378;28;20536;-71
2021/04/22 07:25:32;;;;;;;12.70;1.93;;;8.00;64.00;;;;;;5067183;28;20365;-72
2021/04/22 07:27:59;;;;;;;9.43;1.20;;;8.10;63.60;;;;;;5055522;28;20048;-72
2021/04/22 07:30:25;;;;;;;8.20;1.43;;;8.10;63.50;;;;;;5035719;28;20083;-70
2021/04/22 07:32:51;;;;;;;9.37;1.50;;;8.20;63.20;;;;;;5045742;28;20074;-72
2021/04/22 07:35:20;;;;;;;8.77;1.63;;;8.20;63.20;;;;;;5055854;28;20036;-70
2021/04/22 07:37:48;;;;;;;10.73;1.70;;;8.30;62.60;;;;;;5073536;28;20035;-72
2021/04/22 07:40:18;;;;;;;14.07;1.53;;;8.50;62.50;;;;;;5055705;28;20024;-69
2021/04/22 07:42:43;;;;;;;10.80;1.33;;;8.50;62.10;;;;;;5055490;28;20020;-69
2021/04/22 07:45:10;;;;;;;7.97;1.40;;;8.50;61.70;;;;;;5055739;28;20039;-71
2021/04/22 07:47:36;;;;;;;14.80;2.17;;;8.60;61.70;;;;;;5073111;28;20029;-71
2021/04/22 07:50:04;;;;;;;9.83;1.30;;;8.70;61.00;;;;;;5055502;28;20027;-72
2021/04/22 07:52:30;;;;;;;7.90;1.20;;;8.80;60.70;;;;;;5055927;28;20044;-70
2021/04/22 07:54:56;;;;;;;7.57;1.20;;;8.90;60.50;;;;;;5039182;28;20561;-70
2021/04/22 07:57:21;;;;;;;10.73;1.90;;;9.00;60.00;;;;;;5073518;28;20050;-70
2021/04/22 07:59:47;;;;;;;12.90;1.83;;;9.00;59.60;;;;;;5055591;28;20104;-70
2021/04/22 08:02:13;;;;;;;9.63;2.10;;;9.10;58.40;;;;;;5055713;28;20075;-70
2021/04/22 08:04:38;;;;;;;6.93;1.00;;;9.10;58.40;;;;;;5055448;28;20397;-71
2021/04/22 08:07:04;;;;;;;9.33;1.33;;;9.10;58.10;;;;;;5055942;28;20082;-71
2021/04/22 08:09:31;;;;;;;8.60;1.40;;;9.20;57.80;;;;;;5055338;28;20492;-73
2021/04/22 08:11:57;;;;;;;6.73;1.50;;;9.20;57.90;;;;;;5055287;28;20017;-70
2021/04/22 08:14:22;;;;;;;12.97;1.97;;;9.20;57.70;;;;;;5073439;28;20029;-71
2021/04/22 08:16:48;;;;;;;6.63;1.37;;;9.20;57.50;;;;;;5073746;28;20035;-72
2021/04/22 08:19:14;;;;;;;12.17;1.93;;;9.30;57.30;;;;;;5055392;28;20078;-74
2021/04/22 08:21:39;;;;;;;9.50;1.53;;;9.40;57.60;;;;;;5055146;28;20060;-77
2021/04/22 08:24:06;;;;;;;12.57;1.63;;;9.50;57.50;;;;;;5057335;28;20226;-77
2021/04/22 08:26:31;;;;;;;8.43;1.57;;;9.60;57.20;;;;;;5070333;28;20523;-77
2021/04/22 08:28:57;;;;;;;9.60;1.80;;;9.70;57.00;;;;;;5017670;28;20120;-78
2021/04/22 08:31:24;;;;;;;8.60;1.73;;;9.90;57.10;;;;;;5071578;28;20029;-77
2021/04/22 08:34:02;;;;;;;7.93;1.77;;;10.10;56.80;;;;;;5093401;28;20027;-77
2021/04/22 08:36:29;;;;;;;14.53;1.83;;;10.30;56.40;;;;;;5086853;28;20028;-77
2021/04/22 08:38:55;;;;;;;7.97;1.47;;;10.40;56.20;;;;;;5082197;28;20036;-78
2021/04/22 08:41:21;;;;;;;10.30;1.70;;;10.60;55.90;;;;;;5058403;28;20492;-80
2021/04/22 08:43:47;;;;;;;10.70;1.47;;;10.60;55.10;;;;;;5055017;28;20069;-82
2021/04/22 08:46:14;;;;;;;8.63;1.40;;;10.60;55.30;;;;;;5071706;28;20024;-78
2021/04/22 08:48:42;;;;;;;7.93;1.63;;;10.60;55.10;;;;;;5065775;28;20391;-78
2021/04/22 08:51:08;;;;;;;15.70;2.30;;;10.50;54.80;;;;;;5092902;28;20021;-77
2021/04/22 08:53:37;;;;;;;10.17;1.70;;;10.60;54.70;;;;;;5043564;28;20445;-77
2021/04/22 08:56:03;;;;;;;8.43;1.53;;;10.60;54.70;;;;;;5072444;28;20052;-79
2021/04/22 08:58:29;;;;;;;12.70;2.33;;;10.50;54.70;;;;;;5072636;28;20025;-78
2021/04/22 09:01:00;;;;;;;9.70;2.20;;;10.50;54.80;;;;;;5054824;28;20044;-77
2021/04/22 09:03:26;;;;;;;8.30;1.43;;;10.40;55.30;;;;;;5092114;28;20077;-77
2021/04/22 09:05:52;;;;;;;9.03;1.30;;;10.40;54.90;;;;;;5092805;28;20036;-77
2021/04/22 09:08:19;;;;;;;12.33;2.20;;;10.50;54.60;;;;;;5067879;28;20369;-77
2021/04/22 09:10:45;;;;;;;9.80;1.47;;;10.60;54.30;;;;;;5038179;28;20017;-77
2021/04/22 09:13:15;;;;;;;9.40;1.87;;;10.70;53.90;;;;;;5072619;28;20039;-77
2021/04/22 09:15:42;;;;;;;8.00;1.67;;;10.70;53.50;;;;;;5072341;28;20020;-77
2021/04/22 09:18:17;;;;;;;7.10;1.40;;;10.80;53.20;;;;;;5054566;28;20036;-78
2021/04/22 09:20:52;;;;;;;14.73;2.00;;;10.90;53.40;;;;;;5054534;28;20068;-78
2021/04/22 09:23:23;;;;;;;10.53;1.50;;;11.00;52.80;;;;;;5072452;28;20476;-77
2021/04/22 09:26:03;;;;;;;6.00;1.23;;;11.20;52.70;;;;;;5088191;28;20020;-78
2021/04/22 09:28:40;;;;;;;11.50;1.57;;;11.30;51.90;;;;;;5092683;28;20349;-77
2021/04/22 09:31:07;;;;;;;10.33;1.80;;;11.40;51.60;;;;;;5081953;28;20030;-71
2021/04/22 09:33:35;;;;;;;8.07;1.30;;;11.60;51.40;;;;;;5072538;28;20043;-71
2021/04/22 09:36:08;;;;;;;8.90;1.30;;;11.70;51.30;;;;;;5073140;28;20020;-71
2021/04/22 09:38:35;;;;;;;6.25;0.80;;;11.90;50.80;;;;;;5062057;28;20021;-71
2021/04/22 09:41:15;;;;;;;7.90;1.20;;;12.00;50.90;;;;;;5075744;28;20037;-72
2021/04/22 09:43:42;;;;;;;8.90;1.27;;;12.20;50.70;;;;;;5078420;28;20113;-72
2021/04/22 09:46:23;;;;;;;10.80;2.08;;;12.40;50.20;;;;;;5078255;28;20422;-71
2021/04/22 09:48:49;;;;;;;10.35;1.45;;;12.50;49.20;;;;;;5069885;28;20035;-72
2021/04/22 09:51:30;;;;;;;8.07;1.50;;;12.70;49.40;;;;;;5084543;28;20028;-71
2021/04/22 09:54:17;;;;;;;10.50;2.05;;;12.90;49.40;;;;;;5075960;28;20040;-72
2021/04/22 09:56:53;;;;;;;7.68;1.52;;;13.10;49.10;;;;;;5075575;28;20025;-72
2021/04/22 09:59:21;;;;;;;8.50;1.52;;;13.20;48.20;;;;;;5057626;28;20024;-71
2021/04/22 10:01:58;;;;;;;6.50;1.10;;;13.20;47.90;;;;;;5057678;28;20080;-75
2021/04/22 10:04:40;;;;;;;4.53;1.10;;;13.30;47.90;;;;;;5052928;28;20469;-73
2021/04/22 10:07:24;;;;;;;7.82;1.25;;;13.30;48.30;;;;;;5076329;28;20101;-72
2021/04/22 10:09:56;;;;;;;7.43;1.05;;;13.30;47.90;;;;;;5089327;28;20037;-71
2021/04/22 10:12:33;;;;;;;10.60;1.38;;;13.40;47.50;;;;;;5060474;28;20024;-71
2021/04/22 10:15:17;;;;;;;6.85;1.40;;;13.60;47.00;;;;;;5083781;28;20020;-71
2021/04/22 10:17:58;;;;;;;7.60;1.30;;;13.90;46.20;;;;;;5060003;28;20058;-71
2021/04/22 10:20:25;;;;;;;11.05;1.30;;;14.10;45.90;;;;;;5063020;28;20123;-71
2021/04/22 10:22:53;;;;;;;7.53;1.13;;;14.50;45.00;;;;;;5080659;28;20025;-71
2021/04/22 10:25:27;;;;;;;6.97;1.30;;;14.70;44.70;;;;;;5065292;28;20016;-72
2021/04/22 10:27:53;;;;;;;;;;;15.10;44.30;;;;;;5075665;28;20425;-71
2021/04/22 10:30:22;;;;;;;6.80;1.15;;;15.60;44.00;;;;;;5070248;28;20003;-73
2021/04/22 10:32:49;;;;;;;4.70;0.98;;;16.00;43.80;;;;;;5075091;28;20075;-76
2021/04/22 10:35:20;;;;;;;8.02;1.38;;;16.00;44.00;;;;;;5074964;28;20052;-73
2021/04/22 10:37:50;;;;;;;5.63;1.00;;;16.00;44.50;;;;;;5056687;28;20074;-73
2021/04/22 10:40:16;;;;;;;5.38;1.15;;;15.90;43.90;;;;;;5059902;28;20059;-70
2021/04/22 10:42:43;;;;;;;7.22;1.40;;;15.80;43.60;;;;;;5053416;28;20080;-70
2021/04/22 10:45:15;;;;;;;5.35;1.10;;;15.80;43.50;;;;;;5042396;28;20032;-77
2021/04/22 10:47:41;;;;;;;4.95;0.90;;;15.80;43.20;;;;;;5061030;28;20357;-78
2021/04/22 10:50:16;;;;;;;13.35;1.45;;;16.00;43.00;;;;;;5020627;28;20040;-78
2021/04/22 10:52:49;;;;;;;9.65;1.13;;;16.00;42.70;;;;;;5055194;28;20048;-72
2021/04/22 10:55:15;;;;;;;7.20;1.60;;;16.00;42.60;;;;;;5055291;28;20032;-71
2021/04/22 10:57:41;;;;;;;3.97;0.90;;;16.10;42.50;;;;;;5054649;28;20017;-71
2021/04/22 11:00:12;;;;;;;6.72;1.00;;;16.30;42.90;;;;;;5054518;28;20102;-71
2021/04/22 11:02:48;;;;;;;5.03;1.20;;;16.50;41.90;;;;;;5037077;28;20025;-77
2021/04/22 11:05:17;;;;;;;8.70;1.60;;;16.70;41.70;;;;;;5055084;28;20484;-77
2021/04/22 11:07:54;;;;;;;6.53;0.82;;;16.90;41.50;;;;;;5036606;28;20037;-77
2021/04/22 11:10:20;;;;;;;7.72;0.98;;;17.20;40.90;;;;;;5062458;28;20021;-74
2021/04/22 11:12:45;;;;;;;7.28;1.00;;;17.30;40.80;;;;;;5061167;28;20030;-77
2021/04/22 11:15:18;;;;;;;6.80;1.20;;;17.50;40.60;;;;;;5076879;28;20020;-77
2021/04/22 11:17:44;;;;;;;5.40;0.93;;;17.60;40.50;;;;;;5074420;28;20483;-79
2021/04/22 11:20:19;;;;;;;6.20;1.20;;;17.60;40.40;;;;;;5056187;28;20332;-78
2021/04/22 11:22:46;;;;;;;4.90;0.90;;;17.70;40.20;;;;;;5074398;28;20029;-77
2021/04/22 11:25:19;;;;;;;8.25;1.35;;;17.80;40.10;;;;;;5071063;28;20468;-77
2021/04/22 11:27:51;;;;;;;4.63;0.93;;;17.80;39.60;;;;;;5074150;28;20028;-77
2021/04/22 11:30:31;;;;;;;4.25;1.05;;;18.00;39.50;;;;;;5074067;28;20056;-71
2021/04/22 11:32:59;;;;;;;6.13;0.95;;;18.10;39.00;;;;;;5039825;28;20025;-70
2021/04/22 11:35:28;;;;;;;4.15;0.70;;;18.40;38.90;;;;;;5073421;28;20017;-72
2021/04/22 11:38:00;;;;;;;6.78;0.93;;;18.70;38.50;;;;;;5073675;28;20021;-71
2021/04/22 11:40:29;;;;;;;4.55;1.42;;;18.90;38.20;;;;;;5068126;28;20025;-70
2021/04/22 11:42:56;;;;;;;6.03;1.05;;;19.20;38.00;;;;;;5055965;28;20107;-71
2021/04/22 11:45:24;;;;;;;5.40;0.80;;;19.50;37.80;;;;;;5055628;28;20479;-72
2021/04/22 11:47:58;;;;;;;5.55;1.02;;;19.70;37.40;;;;;;5055520;28;20391;-72
2021/04/22 11:50:30;;;;;;;5.60;1.33;;;19.90;36.80;;;;;;5077659;28;20107;-71
2021/04/22 11:52:58;;;;;;;5.93;1.10;;;20.10;36.80;;;;;;5093922;28;20413;-72
2021/04/22 11:55:30;;;;;;;4.82;1.13;;;20.30;36.80;;;;;;5094150;28;20024;-73
2021/04/22 11:58:09;;;;;;;4.07;0.80;;;20.60;36.30;;;;;;5075634;28;20016;-71
2021/04/22 12:00:44;;;;;;;5.90;1.00;;;20.90;36.20;;;;;;5087711;28;20028;-77
2021/04/22 12:03:11;;;;;;;4.65;0.95;;;21.20;35.60;;;;;;5067393;28;20533;-78
2021/04/22 12:05:38;;;;;;;9.35;1.23;;;21.40;35.40;;;;;;5073023;28;20226;-78
2021/04/22 12:08:06;;;;;;;5.57;1.00;;;21.60;34.90;;;;;;5055312;28;20036;-78
2021/04/22 12:10:34;;;;;;;7.55;1.00;;;21.70;34.40;;;;;;5073323;28;20017;-78
2021/04/22 12:13:12;;;;;;;5.80;0.90;;;21.90;34.10;;;;;;5038731;28;20021;-78
2021/04/22 12:15:41;;;;;;;5.72;1.17;;;22.10;33.70;;;;;;5073138;28;20031;-79
2021/04/22 12:18:09;;;;;;;3.72;0.75;;;22.30;34.00;;;;;;5073184;28;20070;-78
2021/04/22 12:20:36;;;;;;;4.30;0.75;;;22.50;33.80;;;;;;5072825;28;20036;-78
2021/04/22 12:23:02;;;;;;;5.47;0.80;;;22.60;33.40;;;;;;5072999;28;20040;-78
2021/04/22 12:25:28;;;;;;;4.60;0.90;;;22.80;32.80;;;;;;5072984;28;20502;-78
2021/04/22 12:28:01;;;;;;;3.85;0.57;;;23.00;32.40;;;;;;5072967;28;20040;-79
2021/04/22 12:30:46;;;;;;;6.72;1.17;;;23.30;32.00;;;;;;5054817;28;20040;-82
2021/04/22 12:33:22;;;;;;;4.03;0.90;;;23.50;32.10;;;;;;5072959;28;20030;-79
2021/04/22 12:35:59;;;;;;;7.18;1.33;;;23.70;31.40;;;;;;5072723;28;20025;-80
2021/04/22 12:38:33;;;;;;;7.75;1.00;;;23.80;31.30;;;;;;5054753;28;20036;-86
2021/04/22 12:41:11;;;;;;;5.25;1.10;;;23.90;31.30;;;;;;5068839;28;20024;-78
2021/04/22 12:43:41;;;;;;;6.22;0.98;;;23.90;31.00;;;;;;5069707;28;20052;-79
2021/04/22 12:46:10;;;;;;;6.57;1.10;;;24.00;31.20;;;;;;5054599;28;20424;-79
2021/04/22 12:48:37;;;;;;;9.52;1.27;;;24.10;31.00;;;;;;5054351;28;20059;-78
2021/04/22 12:51:03;;;;;;;4.20;0.90;;;24.10;30.90;;;;;;5072792;28;20461;-78